Time;durP1;ratioP1;P1;durP2;ratioP2;P2;SDS_P1;SDS_P2;PMS_P1;PMS_P2;Temp;Humidity;BMP_temperature;BMP_pressure;BME280_temperature;BME280_humidity;BME280_pressure;Samples;Min_cycle;Max_cycle;Signal;HPM_P1;HPM_P2
2021/08/14 00:00:10;;;;;;;10.18;3.58;;;16.20;92.40;;;;;;5031682;28;20521;-61
2021/08/14 00:02:36;;;;;;;9.65;4.15;;;16.10;92.60;;;;;;5031986;28;20090;-60
2021/08/14 00:05:02;;;;;;;8.50;3.35;;;16.10;92.70;;;;;;5031600;28;20036;-61
2021/08/14 00:07:28;;;;;;;9.63;4.05;;;16.10;92.80;;;;;;5031838;28;20475;-61
2021/08/14 00:09:53;;;;;;;8.60;3.90;;;16.10;92.90;;;;;;5031837;28;20083;-61
2021/08/14 00:12:19;;;;;;;11.30;4.53;;;16.00;93.10;;;;;;5031864;28;20483;-60
2021/08/14 00:14:44;;;;;;;10.30;4.63;;;16.00;93.30;;;;;;5031947;28;20021;-61
2021/08/14 00:17:10;;;;;;;10.80;4.93;;;15.90;93.80;;;;;;5031645;28;20034;-61
2021/08/14 00:19:35;;;;;;;8.85;4.60;;;15.80;94.00;;;;;;5031563;28;20080;-60
2021/08/14 00:22:01;;;;;;;7.13;3.97;;;15.80;94.30;;;;;;5030503;28;20382;-61
2021/08/14 00:24:26;;;;;;;9.43;3.50;;;15.80;94.30;;;;;;5031803;28;20037;-60
2021/08/14 00:26:52;;;;;;;12.77;4.80;;;15.80;94.30;;;;;;5031532;28;20032;-60
2021/08/14 00:29:18;;;;;;;8.32;4.40;;;15.80;94.50;;;;;;5031958;28;20038;-60
2021/08/14 00:31:44;;;;;;;12.30;4.93;;;15.70;94.70;;;;;;5031746;28;20018;-60
2021/08/14 00:34:10;;;;;;;11.82;5.32;;;15.70;94.90;;;;;;5030987;28;20032;-60
2021/08/14 00:36:35;;;;;;;10.95;5.05;;;15.70;95.10;;;;;;5031736;28;20021;-60
2021/08/14 00:39:01;;;;;;;13.73;6.13;;;15.70;95.50;;;;;;5031666;28;20389;-60
2021/08/14 00:41:30;;;;;;;17.17;6.07;;;15.60;95.90;;;;;;5031513;28;20045;-60
2021/08/14 00:44:01;;;;;;;12.02;5.50;;;15.60;96.20;;;;;;5029253;28;20024;-60
2021/08/14 00:46:27;;;;;;;11.70;5.45;;;15.50;96.30;;;;;;5031604;28;20025;-60
2021/08/14 00:48:53;;;;;;;12.00;5.97;;;15.50;96.40;;;;;;5031671;28;20025;-60
2021/08/14 00:51:18;;;;;;;13.70;6.60;;;15.40;96.70;;;;;;5031972;28;20028;-60
2021/08/14 00:53:46;;;;;;;19.13;7.25;;;15.30;97.00;;;;;;5031086;28;20026;-60
2021/08/14 00:56:12;;;;;;;15.27;5.38;;;15.30;97.20;;;;;;5029964;28;20385;-60
2021/08/14 00:58:37;;;;;;;9.63;4.80;;;15.30;97.30;;;;;;5029927;28;20026;-60
2021/08/14 01:01:04;;;;;;;9.98;4.35;;;15.40;97.30;;;;;;5031516;28;20029;-60
2021/08/14 01:03:29;;;;;;;12.40;5.00;;;15.50;97.20;;;;;;5031126;28;20026;-60
2021/08/14 01:05:56;;;;;;;9.38;4.43;;;15.50;97.10;;;;;;5031197;28;20048;-60
2021/08/14 01:08:22;;;;;;;8.75;4.78;;;15.50;97.10;;;;;;5031350;28;20057;-60
2021/08/14 01:10:47;;;;;;;8.15;4.15;;;15.50;97.10;;;;;;5034586;28;20042;-60
2021/08/14 01:13:13;;;;;;;7.95;3.95;;;15.50;97.00;;;;;;5034772;28;20034;-60
2021/08/14 01:15:49;;;;;;;10.52;4.25;;;15.50;97.00;;;;;;5035197;28;20021;-60
2021/08/14 01:18:16;;;;;;;10.80;3.55;;;15.60;97.00;;;;;;5035160;28;20076;-60
2021/08/14 01:20:42;;;;;;;9.02;4.18;;;15.60;97.00;;;;;;5034833;28;20468;-60
2021/08/14 01:23:09;;;;;;;9.43;4.35;;;15.50;97.00;;;;;;5034892;28;20040;-60
2021/08/14 01:25:34;;;;;;;9.95;4.97;;;15.50;97.10;;;;;;5034929;28;20111;-60
2021/08/14 01:28:00;;;;;;;10.93;5.35;;;15.50;97.20;;;;;;5034857;28;20465;-60
2021/08/14 01:30:25;;;;;;;9.68;4.65;;;15.50;97.30;;;;;;5034718;28;20029;-60
2021/08/14 01:32:51;;;;;;;9.68;4.20;;;15.50;97.40;;;;;;5034579;28;20044;-60
2021/08/14 01:35:17;;;;;;;10.40;5.18;;;15.50;97.40;;;;;;5034583;28;20036;-60
2021/08/14 01:37:42;;;;;;;15.13;6.43;;;15.50;97.50;;;;;;5034223;28;20025;-61
2021/08/14 01:40:08;;;;;;;18.45;7.25;;;15.40;97.80;;;;;;5034256;28;21434;-60
2021/08/14 01:42:34;;;;;;;13.40;6.90;;;15.40;98.20;;;;;;5031745;28;20112;-60
2021/08/14 01:44:59;;;;;;;13.15;6.45;;;15.30;98.50;;;;;;5034386;28;20029;-60
2021/08/14 01:47:25;;;;;;;15.80;6.70;;;15.20;98.80;;;;;;5033326;28;20449;-60
2021/08/14 01:49:50;;;;;;;12.63;6.20;;;15.10;99.00;;;;;;5034494;28;20537;-60
2021/08/14 01:52:17;;;;;;;13.73;6.47;;;15.00;99.10;;;;;;5034244;28;20501;-60
2021/08/14 01:54:43;;;;;;;14.00;6.00;;;15.00;99.30;;;;;;5034372;28;20101;-60
2021/08/14 01:57:09;;;;;;;14.07;7.00;;;15.00;99.40;;;;;;5034289;28;20072;-60
2021/08/14 01:59:35;;;;;;;14.90;6.65;;;15.00;99.60;;;;;;5034173;28;20025;-60
2021/08/14 02:02:02;;;;;;;15.98;6.78;;;15.00;99.70;;;;;;5032482;28;20105;-60
2021/08/14 02:04:28;;;;;;;14.55;7.30;;;15.00;99.90;;;;;;5034304;28;20068;-60
2021/08/14 02:06:54;;;;;;;14.73;7.63;;;14.90;99.90;;;;;;5034292;28;20445;-60
2021/08/14 02:09:20;;;;;;;11.65;7.07;;;14.90;99.90;;;;;;5034162;28;20029;-60
2021/08/14 02:11:45;;;;;;;10.00;6.30;;;14.80;99.90;;;;;;5033993;28;20377;-60
2021/08/14 02:14:12;;;;;;;12.20;6.07;;;14.90;99.90;;;;;;5033826;28;20564;-61
2021/08/14 02:16:37;;;;;;;14.80;6.80;;;14.90;99.90;;;;;;5034038;28;20029;-60
2021/08/14 02:19:03;;;;;;;13.07;7.53;;;14.90;99.90;;;;;;5033994;28;20433;-60
2021/08/14 02:21:29;;;;;;;13.98;7.30;;;14.90;99.90;;;;;;5033868;28;20033;-61
2021/08/14 02:23:56;;;;;;;13.52;7.70;;;14.80;99.90;;;;;;5032064;28;20152;-60
2021/08/14 02:26:22;;;;;;;14.63;7.45;;;14.80;99.90;;;;;;5033905;28;20028;-60
2021/08/14 02:28:48;;;;;;;13.57;7.55;;;14.70;99.90;;;;;;5032279;28;20021;-60
2021/08/14 02:31:13;;;;;;;13.77;7.43;;;14.70;99.90;;;;;;5037899;28;20022;-60
2021/08/14 02:33:39;;;;;;;15.32;7.50;;;14.70;99.90;;;;;;5033364;28;20120;-60
2021/08/14 02:36:06;;;;;;;14.20;7.53;;;14.70;99.90;;;;;;5032763;28;20022;-60
2021/08/14 02:38:33;;;;;;;10.52;6.70;;;14.70;99.90;;;;;;5032654;28;20026;-60
2021/08/14 02:41:00;;;;;;;15.70;7.25;;;14.70;99.90;;;;;;5033096;28;20448;-60
2021/08/14 02:43:26;;;;;;;12.10;7.68;;;14.70;99.90;;;;;;5033334;28;20041;-60
2021/08/14 02:45:51;;;;;;;15.48;8.40;;;14.70;99.90;;;;;;5033490;28;20083;-61
2021/08/14 02:48:17;;;;;;;10.98;7.80;;;14.70;99.90;;;;;;5033552;28;20036;-60
2021/08/14 02:50:46;;;;;;;15.88;7.45;;;14.70;99.90;;;;;;5033870;28;20048;-60
2021/08/14 02:53:13;;;;;;;16.92;7.32;;;14.70;99.90;;;;;;5032933;28;20104;-60
2021/08/14 02:55:40;;;;;;;14.00;8.52;;;14.70;99.90;;;;;;5033350;28;20029;-61
2021/08/14 02:58:05;;;;;;;13.63;7.75;;;14.60;99.90;;;;;;5033564;28;20044;-61
2021/08/14 03:00:31;;;;;;;18.10;8.52;;;14.60;99.90;;;;;;5033385;28;20473;-60
2021/08/14 03:02:57;;;;;;;10.45;6.63;;;14.60;99.90;;;;;;5033074;28;20025;-60
2021/08/14 03:05:22;;;;;;;14.20;6.97;;;14.60;99.90;;;;;;5033125;28;20057;-60
2021/08/14 03:07:48;;;;;;;14.27;6.35;;;14.60;99.90;;;;;;5032932;28;20028;-60
2021/08/14 03:10:14;;;;;;;13.35;6.45;;;14.60;99.90;;;;;;5032670;28;20024;-61
2021/08/14 03:12:39;;;;;;;13.43;7.00;;;14.60;99.90;;;;;;5032938;28;20022;-61
2021/08/14 03:15:07;;;;;;;12.73;7.65;;;14.60;99.90;;;;;;5033152;28;20014;-60
2021/08/14 03:17:32;;;;;;;17.60;8.18;;;14.60;99.90;;;;;;5032717;28;20032;-61
2021/08/14 03:20:00;;;;;;;15.88;8.57;;;14.60;99.90;;;;;;5032782;28;20030;-61
2021/08/14 03:22:26;;;;;;;11.63;7.50;;;14.60;99.90;;;;;;5031446;28;20040;-60
2021/08/14 03:24:51;;;;;;;13.30;8.50;;;14.60;99.90;;;;;;5032483;28;20021;-60
2021/08/14 03:27:17;;;;;;;20.00;8.90;;;14.50;99.90;;;;;;5032921;28;20025;-60
2021/08/14 03:29:42;;;;;;;14.57;8.10;;;14.50;99.90;;;;;;5031377;28;20469;-60
2021/08/14 03:32:08;;;;;;;10.77;7.13;;;14.50;99.90;;;;;;5032043;28;20354;-60
2021/08/14 03:34:33;;;;;;;13.10;6.13;;;14.50;99.90;;;;;;5032326;28;20048;-60
2021/08/14 03:36:59;;;;;;;12.18;6.18;;;14.50;99.90;;;;;;5032555;28;20105;-60
2021/08/14 03:39:24;;;;;;;10.98;6.20;;;14.50;99.90;;;;;;5032504;28;20104;-61
2021/08/14 03:41:50;;;;;;;12.93;6.40;;;14.50;99.90;;;;;;5032333;28;20524;-60
2021/08/14 03:44:15;;;;;;;12.05;5.38;;;14.50;99.90;;;;;;5029710;28;20029;-60
2021/08/14 03:46:41;;;;;;;9.98;5.40;;;14.60;99.90;;;;;;5032317;28;20025;-60
2021/08/14 03:49:06;;;;;;;9.50;4.70;;;14.60;99.90;;;;;;5031043;28;20080;-60
2021/08/14 03:51:32;;;;;;;8.30;5.10;;;14.60;99.90;;;;;;5032034;28;20013;-60
2021/08/14 03:53:57;;;;;;;8.70;4.32;;;14.60;99.90;;;;;;5032166;28;20385;-60
2021/08/14 03:56:23;;;;;;;10.52;4.63;;;14.70;99.90;;;;;;5031982;28;20576;-60
2021/08/14 03:58:48;;;;;;;12.23;4.85;;;14.70;99.90;;;;;;5032221;28;20101;-60
2021/08/14 04:01:14;;;;;;;10.35;5.60;;;14.70;99.90;;;;;;5031976;28;20037;-60
2021/08/14 04:03:39;;;;;;;10.15;5.30;;;14.70;99.90;;;;;;5030671;28;20032;-60
2021/08/14 04:06:05;;;;;;;9.00;5.18;;;14.70;99.90;;;;;;5031950;28;20048;-61
2021/08/14 04:08:30;;;;;;;14.02;5.03;;;14.70;99.90;;;;;;5031723;28;20398;-60
2021/08/14 04:10:56;;;;;;;9.45;4.90;;;14.70;99.90;;;;;;5031864;28;20415;-60
2021/08/14 04:13:22;;;;;;;10.65;5.10;;;14.80;99.90;;;;;;5032033;28;20024;-60
2021/08/14 04:15:47;;;;;;;13.82;6.30;;;14.70;99.90;;;;;;5032011;28;20492;-60
2021/08/14 04:18:13;;;;;;;14.73;6.47;;;14.70;99.90;;;;;;5030628;28;20080;-60
2021/08/14 04:20:38;;;;;;;14.27;6.97;;;14.60;99.90;;;;;;5031708;28;20025;-61
2021/08/14 04:23:04;;;;;;;14.73;7.28;;;14.50;99.90;;;;;;5031844;28;20033;-61
2021/08/14 04:25:29;;;;;;;13.77;7.25;;;14.50;99.90;;;;;;5031497;28;20036;-60
2021/08/14 04:27:55;;;;;;;10.18;6.88;;;14.40;99.90;;;;;;5031634;28;20025;-60
2021/08/14 04:30:21;;;;;;;13.43;6.70;;;14.30;99.90;;;;;;5031725;28;20025;-60
2021/08/14 04:32:47;;;;;;;13.50;6.88;;;14.30;99.90;;;;;;5031824;28;20394;-60
2021/08/14 04:35:14;;;;;;;12.45;7.32;;;14.30;99.90;;;;;;5031331;28;20025;-61
2021/08/14 04:37:41;;;;;;;14.10;7.57;;;14.30;99.90;;;;;;5031691;28;20444;-60
2021/08/14 04:40:10;;;;;;;16.92;8.25;;;14.20;99.90;;;;;;5031492;28;20588;-60
2021/08/14 04:42:36;;;;;;;16.20;7.50;;;14.20;99.90;;;;;;5031570;28;20041;-60
2021/08/14 04:45:02;;;;;;;14.13;6.80;;;14.20;99.90;;;;;;5031686;28;20113;-60
2021/08/14 04:47:28;;;;;;;14.57;8.40;;;14.20;99.90;;;;;;5035681;28;20021;-60
2021/08/14 04:49:53;;;;;;;14.15;8.30;;;14.20;99.90;;;;;;5035426;28;20025;-60
2021/08/14 04:52:19;;;;;;;16.02;8.85;;;14.10;99.90;;;;;;5035497;28;20464;-60
2021/08/14 04:54:44;;;;;;;12.60;7.60;;;14.10;99.90;;;;;;5035326;28;20037;-60
2021/08/14 04:57:10;;;;;;;15.02;6.90;;;14.10;99.90;;;;;;5035746;28;20032;-60
2021/08/14 04:59:35;;;;;;;13.35;6.32;;;14.10;99.90;;;;;;5035681;28;20477;-60
2021/08/14 05:02:03;;;;;;;10.80;6.72;;;14.20;99.90;;;;;;5035500;28;20025;-60
2021/08/14 05:04:29;;;;;;;11.95;7.18;;;14.20;99.90;;;;;;5035475;28;20021;-60
2021/08/14 05:06:55;;;;;;;11.75;6.97;;;14.20;99.90;;;;;;5034939;28;20033;-60
2021/08/14 05:09:20;;;;;;;12.82;7.38;;;14.30;99.90;;;;;;5035271;28;20040;-60
2021/08/14 05:11:46;;;;;;;11.98;7.55;;;14.30;99.90;;;;;;5033991;28;20025;-60
2021/08/14 05:14:11;;;;;;;14.15;7.20;;;14.30;99.90;;;;;;5032856;28;20104;-60
2021/08/14 05:16:37;;;;;;;15.32;7.82;;;14.30;99.90;;;;;;5034051;28;20481;-60
2021/08/14 05:19:03;;;;;;;15.25;7.97;;;14.30;99.90;;;;;;5034234;28;20021;-60
2021/08/14 05:21:29;;;;;;;18.58;8.50;;;14.30;99.90;;;;;;5034388;28;20029;-60
2021/08/14 05:23:55;;;;;;;18.98;7.95;;;14.30;99.90;;;;;;5033426;28;20424;-60
2021/08/14 05:26:21;;;;;;;16.73;8.85;;;14.30;99.90;;;;;;5034788;28;20101;-60
2021/08/14 05:28:46;;;;;;;15.68;8.57;;;14.30;99.90;;;;;;5034931;28;20076;-60
2021/08/14 05:31:12;;;;;;;16.00;8.77;;;14.30;99.90;;;;;;5034824;28;20497;-61
2021/08/14 05:33:37;;;;;;;11.85;7.18;;;14.40;99.90;;;;;;5034892;28;20436;-60
2021/08/14 05:36:03;;;;;;;14.40;7.70;;;14.40;99.90;;;;;;5034618;28;20409;-60
2021/08/14 05:38:29;;;;;;;15.60;8.35;;;14.40;99.90;;;;;;5034913;28;20053;-60
2021/08/14 05:40:54;;;;;;;20.38;9.10;;;14.50;99.90;;;;;;5033299;28;20085;-60
2021/08/14 05:43:21;;;;;;;19.60;9.30;;;14.50;99.90;;;;;;5032821;28;20022;-61
2021/08/14 05:45:46;;;;;;;15.30;8.35;;;14.50;99.90;;;;;;5033120;28;20420;-60
2021/08/14 05:48:12;;;;;;;14.35;7.32;;;14.60;99.90;;;;;;5034057;28;20481;-60
2021/08/14 05:50:37;;;;;;;19.55;8.05;;;14.60;99.90;;;;;;5033458;28;20017;-60
2021/08/14 05:53:03;;;;;;;13.73;7.30;;;14.70;99.90;;;;;;5030631;28;20103;-60
2021/08/14 05:55:28;;;;;;;16.85;8.40;;;14.70;99.90;;;;;;5019334;28;20029;-60
2021/08/14 05:57:54;;;;;;;13.77;7.70;;;14.80;99.90;;;;;;5033641;28;20025;-60
2021/08/14 06:00:21;;;;;;;16.50;8.02;;;14.80;99.90;;;;;;5034036;28;20061;-60
2021/08/14 06:02:47;;;;;;;17.77;7.63;;;14.80;99.90;;;;;;5033918;28;20436;-60
2021/08/14 06:05:12;;;;;;;14.30;7.40;;;14.90;99.90;;;;;;5033934;28;20696;-60
2021/08/14 06:07:38;;;;;;;15.55;7.03;;;15.00;99.90;;;;;;5034071;28;20033;-60
2021/08/14 06:10:07;;;;;;;15.18;7.03;;;15.00;99.90;;;;;;5033980;28;20017;-60
2021/08/14 06:12:40;;;;;;;12.60;7.15;;;15.10;99.90;;;;;;5033380;28;20382;-61
2021/08/14 06:15:06;;;;;;;17.52;8.02;;;15.10;99.90;;;;;;5032972;28;20095;-60
2021/08/14 06:17:32;;;;;;;12.77;7.13;;;15.20;99.90;;;;;;5033241;28;20025;-60
2021/08/14 06:19:57;;;;;;;16.48;9.07;;;15.30;99.90;;;;;;5033542;28;20541;-60
2021/08/14 06:22:23;;;;;;;14.50;8.10;;;15.30;99.90;;;;;;5033696;28;20078;-60
2021/08/14 06:24:50;;;;;;;11.00;7.75;;;15.40;99.90;;;;;;5033663;28;20071;-60
2021/08/14 06:27:16;;;;;;;15.43;6.55;;;15.40;99.90;;;;;;5033253;28;20539;-60
2021/08/14 06:29:41;;;;;;;13.88;6.75;;;15.50;99.90;;;;;;5032437;28;20029;-60
2021/08/14 06:32:07;;;;;;;18.15;8.48;;;15.50;99.90;;;;;;5033582;28;20040;-60
2021/08/14 06:34:33;;;;;;;18.02;9.02;;;15.50;99.90;;;;;;5033390;28;20099;-60
2021/08/14 06:36:58;;;;;;;19.52;8.90;;;15.60;99.90;;;;;;5033345;28;20466;-60
2021/08/14 06:39:24;;;;;;;15.27;7.57;;;15.70;99.90;;;;;;5033427;28;20022;-60
2021/08/14 06:41:49;;;;;;;15.30;8.60;;;15.70;99.90;;;;;;4996928;28;1017195;-60
2021/08/14 06:44:15;;;;;;;15.85;8.07;;;15.70;99.90;;;;;;5034312;28;20030;-60
2021/08/14 06:46:40;;;;;;;21.85;8.80;;;15.80;99.90;;;;;;5032941;28;20376;-60
2021/08/14 06:49:06;;;;;;;18.63;7.90;;;15.90;99.90;;;;;;5032927;28;20036;-60
2021/08/14 06:51:31;;;;;;;15.95;7.38;;;15.90;99.90;;;;;;5033750;28;20037;-60
2021/08/14 06:53:58;;;;;;;16.85;7.72;;;16.00;99.90;;;;;;5029757;28;20418;-60
2021/08/14 06:56:24;;;;;;;13.45;7.20;;;16.00;99.90;;;;;;5033906;28;20022;-60
2021/08/14 06:58:49;;;;;;;15.75;6.53;;;16.10;99.90;;;;;;5033456;28;20108;-60
2021/08/14 07:01:15;;;;;;;11.90;6.30;;;16.10;99.90;;;;;;5033627;28;20029;-61
2021/08/14 07:03:48;;;;;;;21.27;9.25;;;16.20;99.90;;;;;;5033513;28;20018;-60
2021/08/14 07:06:30;;;;;;;;;;;;;;;;;;;;;
2021/08/14 07:08:56;;;;;;;20.27;8.45;;;16.30;99.90;;;;;;5033352;28;20017;-61
2021/08/14 07:11:22;;;;;;;17.60;7.35;;;16.40;99.90;;;;;;5033709;28;20102;-60
2021/08/14 07:13:49;;;;;;;14.82;7.45;;;16.40;99.90;;;;;;5033732;28;20029;-61
2021/08/14 07:16:15;;;;;;;17.30;8.77;;;16.40;99.80;;;;;;5033560;28;20056;-61
2021/08/14 07:18:42;;;;;;;15.80;8.50;;;16.50;99.90;;;;;;5032610;28;20056;-60
2021/08/14 07:21:07;;;;;;;13.43;6.72;;;16.60;99.90;;;;;;5033694;28;20080;-61
2021/08/14 07:23:33;;;;;;;14.90;7.22;;;16.60;99.80;;;;;;5033639;28;20025;-60
2021/08/14 07:25:59;;;;;;;16.30;7.63;;;16.70;99.70;;;;;;5033584;28;20093;-61
2021/08/14 07:28:26;;;;;;;15.55;7.18;;;16.80;99.70;;;;;;5033369;28;20470;-61
2021/08/14 07:30:52;;;;;;;15.07;8.05;;;16.90;99.70;;;;;;5033442;28;20416;-61
2021/08/14 07:33:18;;;;;;;16.27;8.23;;;16.90;99.60;;;;;;5033691;28;20484;-60
2021/08/14 07:35:44;;;;;;;20.77;7.78;;;17.00;99.60;;;;;;5033539;28;20525;-61
2021/08/14 07:38:10;;;;;;;16.70;7.55;;;17.00;99.50;;;;;;5033374;28;20509;-61
2021/08/14 07:40:36;;;;;;;20.65;7.85;;;17.10;99.50;;;;;;5033088;28;20037;-61
2021/08/14 07:43:02;;;;;;;17.17;7.38;;;17.20;99.40;;;;;;5032925;28;20030;-61
2021/08/14 07:45:34;;;;;;;14.23;6.88;;;17.30;99.40;;;;;;5033235;28;20140;-60
2021/08/14 07:48:04;;;;;;;16.40;7.60;;;17.30;99.30;;;;;;5033195;28;20032;-61
2021/08/14 07:50:30;;;;;;;;;;;17.40;99.20;;;;;;5032583;28;20041;-61
2021/08/14 07:52:57;;;;;;;17.77;7.65;;;17.40;99.20;;;;;;5032885;28;19905;-61
2021/08/14 07:55:23;;;;;;;16.73;8.73;;;17.50;99.30;;;;;;5033274;28;20053;-61
2021/08/14 07:57:48;;;;;;;18.25;7.05;;;17.50;99.10;;;;;;5031593;28;20021;-61
2021/08/14 08:00:17;;;;;;;15.15;6.65;;;17.60;99.00;;;;;;5032949;28;20499;-61
2021/08/14 08:02:43;;;;;;;21.88;9.35;;;17.70;98.90;;;;;;5032872;28;20030;-61
2021/08/14 08:05:10;;;;;;;16.42;7.20;;;17.70;98.70;;;;;;5033033;28;20041;-61
2021/08/14 08:07:40;;;;;;;17.33;8.15;;;17.80;98.60;;;;;;5032739;28;20489;-61
2021/08/14 08:10:10;;;;;;;13.63;7.25;;;17.90;98.60;;;;;;5032888;28;20029;-61
2021/08/14 08:12:36;;;;;;;16.30;8.20;;;18.00;98.50;;;;;;5031514;28;20045;-60
2021/08/14 08:15:06;;;;;;;18.52;8.90;;;18.00;98.40;;;;;;5032833;28;20072;-61
2021/08/14 08:17:31;;;;;;;;;;;18.10;98.40;;;;;;5032162;28;20041;-60
2021/08/14 08:19:57;;;;;;;17.67;8.75;;;18.10;98.30;;;;;;5032567;28;20335;-61
2021/08/14 08:22:22;;;;;;;18.85;8.77;;;18.10;98.20;;;;;;5032301;28;20433;-61
2021/08/14 08:24:48;;;;;;;21.35;9.43;;;18.20;98.00;;;;;;5030610;28;20036;-61
2021/08/14 08:27:14;;;;;;;16.05;8.07;;;18.30;97.90;;;;;;5030056;28;20040;-61
2021/08/14 08:29:39;;;;;;;19.77;8.93;;;18.40;97.80;;;;;;5031834;28;20079;-61
2021/08/14 08:32:06;;;;;;;14.95;8.02;;;18.40;97.70;;;;;;5031258;28;20026;-61
2021/08/14 08:34:32;;;;;;;22.45;9.65;;;18.50;97.50;;;;;;5032193;28;20029;-61
2021/08/14 08:36:58;;;;;;;19.33;10.35;;;18.50;97.70;;;;;;5031998;28;20037;-61
2021/08/14 08:39:29;;;;;;;18.95;10.18;;;18.60;97.30;;;;;;5031016;28;20114;-61
2021/08/14 08:41:56;;;;;;;15.20;7.80;;;18.70;97.20;;;;;;5031841;28;20052;-61
2021/08/14 08:44:23;;;;;;;18.73;9.25;;;18.80;97.10;;;;;;5032187;28;20032;-61
2021/08/14 08:46:49;;;;;;;19.25;9.82;;;18.80;97.00;;;;;;5031332;28;20021;-61
2021/08/14 08:49:18;;;;;;;26.38;11.90;;;18.90;96.90;;;;;;5031251;28;20088;-61
2021/08/14 08:51:43;;;;;;;26.88;13.32;;;19.00;96.70;;;;;;5029666;28;20021;-61
2021/08/14 08:54:14;;;;;;;29.67;15.35;;;19.00;96.70;;;;;;5028904;28;20044;-61
2021/08/14 08:56:56;;;;;;;24.65;13.25;;;19.10;96.70;;;;;;5032424;28;20032;-61
2021/08/14 08:59:34;;;;;;;23.20;12.40;;;19.20;96.70;;;;;;5030455;28;20036;-61
2021/08/14 09:02:01;;;;;;;24.55;13.45;;;19.30;96.70;;;;;;5031821;28;20071;-61
2021/08/14 09:04:31;;;;;;;30.38;15.02;;;19.30;96.60;;;;;;5032203;28;20084;-61
2021/08/14 09:06:57;;;;;;;;;;;19.40;96.50;;;;;;5032726;28;20522;-61
2021/08/14 09:09:32;;;;;;;27.88;14.90;;;19.40;96.50;;;;;;5032151;28;20392;-61
2021/08/14 09:12:06;;;;;;;29.70;14.98;;;19.40;96.40;;;;;;5032278;28;20057;-61
2021/08/14 09:14:50;;;;;;;28.27;14.55;;;19.50;96.20;;;;;;5032264;28;20465;-61
2021/08/14 09:17:15;;;;;;;28.85;16.98;;;19.60;96.00;;;;;;5031110;28;20034;-61
2021/08/14 09:19:41;;;;;;;28.05;16.20;;;19.60;95.90;;;;;;5032025;28;20037;-61
2021/08/14 09:22:18;;;;;;;30.27;18.48;;;19.70;95.90;;;;;;5032186;28;20136;-61
2021/08/14 09:24:49;;;;;;;32.83;19.23;;;19.80;96.00;;;;;;5032183;28;20024;-61
2021/08/14 09:27:17;;;;;;;33.75;19.48;;;19.90;95.60;;;;;;5030442;28;20037;-61
2021/08/14 09:29:46;;;;;;;29.05;17.35;;;19.90;95.30;;;;;;5030033;28;20022;-61
2021/08/14 09:32:15;;;;;;;26.95;15.18;;;19.90;95.20;;;;;;5033054;28;20429;-61
2021/08/14 09:34:41;;;;;;;;;;;20.00;95.20;;;;;;5035918;28;20025;-61
2021/08/14 09:37:19;;;;;;;32.30;15.88;;;19.90;94.60;;;;;;5034973;28;19905;-61
2021/08/14 09:39:49;;;;;;;26.90;15.90;;;20.00;94.30;;;;;;5033530;28;20477;-61
2021/08/14 09:42:15;;;;;;;26.40;15.32;;;20.10;94.00;;;;;;5034970;28;20448;-61
2021/08/14 09:44:40;;;;;;;30.02;16.65;;;20.10;93.80;;;;;;5035022;28;20037;-61
2021/08/14 09:47:11;;;;;;;32.42;14.60;;;20.10;93.50;;;;;;5034737;28;20071;-61
2021/08/14 09:50:00;;;;;;;18.00;12.68;;;20.10;93.40;;;;;;5035005;28;20410;-61
2021/08/14 09:52:26;;;;;;;23.13;13.32;;;20.20;93.30;;;;;;5015657;28;20108;-61
2021/08/14 09:55:00;;;;;;;22.00;13.77;;;20.20;93.40;;;;;;5034797;28;20029;-61
2021/08/14 09:57:26;;;;;;;28.58;14.98;;;20.30;93.20;;;;;;5034715;28;20025;-61
2021/08/14 09:59:54;;;;;;;19.98;12.90;;;20.30;93.00;;;;;;5034742;28;20032;-61
2021/08/14 10:02:28;;;;;;;22.83;14.38;;;20.30;93.00;;;;;;5033509;28;20033;-61
2021/08/14 10:04:57;;;;;;;26.40;14.82;;;20.30;93.00;;;;;;5033151;28;20025;-61
2021/08/14 10:07:23;;;;;;;22.92;14.40;;;20.40;92.70;;;;;;5034778;28;20083;-61
2021/08/14 10:09:49;;;;;;;20.33;12.82;;;20.40;92.70;;;;;;5034184;28;20033;-61
2021/08/14 10:12:19;;;;;;;24.55;14.60;;;20.50;92.50;;;;;;5034515;28;20029;-61
2021/08/14 10:14:46;;;;;;;24.90;13.63;;;20.50;92.10;;;;;;5033490;28;20481;-61
2021/08/14 10:17:25;;;;;;;22.00;12.75;;;20.60;92.00;;;;;;5032832;28;20025;-61
2021/08/14 10:19:52;;;;;;;27.27;13.80;;;20.70;92.00;;;;;;5033570;28;20022;-61
2021/08/14 10:22:24;;;;;;;23.30;12.25;;;20.70;92.20;;;;;;5034343;28;20034;-61
2021/08/14 10:24:49;;;;;;;23.75;13.20;;;20.80;92.30;;;;;;5034365;28;20101;-61
2021/08/14 10:27:22;;;;;;;25.17;14.95;;;20.90;92.20;;;;;;5034100;28;20163;-61
2021/08/14 10:29:53;;;;;;;28.00;14.65;;;21.10;91.60;;;;;;5034290;28;20771;-61
2021/08/14 10:32:37;;;;;;;24.15;12.98;;;21.30;91.20;;;;;;5034109;28;20113;-61
2021/08/14 10:35:20;;;;;;;23.70;15.30;;;21.40;91.00;;;;;;5034208;28;20024;-61
2021/08/14 10:37:49;;;;;;;31.52;17.10;;;21.40;90.70;;;;;;5034549;28;20029;-61
2021/08/14 10:40:18;;;;;;;31.42;15.75;;;21.50;90.90;;;;;;5033958;28;20021;-61
2021/08/14 10:42:56;;;;;;;26.80;15.57;;;21.70;90.80;;;;;;5032717;28;20041;-61
2021/08/14 10:45:34;;;;;;;25.27;13.40;;;21.90;90.60;;;;;;5034064;28;20481;-61
2021/08/14 10:48:06;;;;;;;23.88;14.25;;;22.00;90.70;;;;;;5033694;28;20025;-61
2021/08/14 10:50:32;;;;;;;24.25;13.82;;;22.20;90.30;;;;;;5033821;28;20500;-61
2021/08/14 10:53:18;;;;;;;24.20;13.73;;;22.30;90.00;;;;;;5031523;28;20057;-61
2021/08/14 10:55:47;;;;;;;20.83;12.13;;;22.50;89.40;;;;;;5033765;28;20021;-61
2021/08/14 10:58:28;;;;;;;16.60;10.32;;;22.60;89.10;;;;;;5031152;28;20392;-61
2021/08/14 11:01:22;;;;;;;15.48;10.40;;;22.70;88.20;;;;;;5033602;28;20025;-61
2021/08/14 11:03:47;;;;;;;17.40;11.73;;;22.80;87.40;;;;;;5033263;28;20083;-62
2021/08/14 11:06:34;;;;;;;16.33;10.25;;;23.00;86.70;;;;;;5033569;28;20429;-61
2021/08/14 11:09:17;;;;;;;21.42;11.38;;;23.20;86.60;;;;;;5032946;28;20032;-61
2021/08/14 11:12:00;;;;;;;20.80;11.85;;;23.20;86.30;;;;;;5033238;28;20070;-61
2021/08/14 11:14:46;;;;;;;15.68;10.18;;;23.10;85.90;;;;;;5032516;28;20385;-61
2021/08/14 11:17:13;;;;;;;16.35;9.95;;;23.10;86.20;;;;;;5033519;28;20504;-62
2021/08/14 11:20:07;;;;;;;16.45;9.32;;;23.00;86.10;;;;;;5033623;28;20029;-61
2021/08/14 11:22:41;;;;;;;18.38;10.35;;;23.00;86.30;;;;;;5033700;28;20018;-61
2021/08/14 11:25:22;;;;;;;17.08;10.10;;;23.00;86.20;;;;;;5034029;28;20034;-61
2021/08/14 11:28:03;;;;;;;16.52;10.75;;;23.00;85.90;;;;;;5032655;28;20025;-61
2021/08/14 11:30:35;;;;;;;14.73;9.25;;;22.90;85.40;;;;;;5033272;28;20036;-61
2021/08/14 11:33:05;;;;;;;14.77;8.35;;;23.10;85.90;;;;;;5032390;28;20377;-61
2021/08/14 11:35:33;;;;;;;14.80;9.25;;;23.40;85.30;;;;;;5032026;28;20101;-61
2021/08/14 11:38:01;;;;;;;11.18;7.68;;;23.50;84.20;;;;;;5032961;28;20021;-61
2021/08/14 11:40:32;;;;;;;11.80;7.95;;;23.60;84.30;;;;;;5031806;28;20033;-61
2021/08/14 11:43:20;;;;;;;13.13;7.90;;;23.60;83.90;;;;;;5032664;28;20520;-61
2021/08/14 11:45:46;;;;;;;10.35;6.90;;;23.60;83.50;;;;;;5032979;28;20037;-61
2021/08/14 11:48:14;;;;;;;11.65;7.43;;;23.70;83.30;;;;;;5031203;28;20033;-61
2021/08/14 11:50:43;;;;;;;11.25;6.65;;;23.80;82.50;;;;;;5032429;28;20044;-61
2021/08/14 11:53:21;;;;;;;11.95;6.95;;;24.00;82.30;;;;;;5029456;28;20031;-61
2021/08/14 11:55:47;;;;;;;11.10;7.20;;;24.00;81.90;;;;;;5031412;28;20028;-61
2021/08/14 11:58:15;;;;;;;13.10;7.20;;;24.20;80.80;;;;;;5032540;28;20401;-61
2021/08/14 12:00:40;;;;;;;10.63;7.13;;;24.30;80.50;;;;;;5032583;28;20041;-61
2021/08/14 12:03:06;;;;;;;14.20;6.72;;;24.60;79.80;;;;;;5031740;28;20026;-61
2021/08/14 12:05:32;;;;;;;11.88;6.60;;;24.80;79.00;;;;;;5031712;28;20113;-61
2021/08/14 12:07:58;;;;;;;11.10;6.93;;;25.00;78.40;;;;;;5030396;28;20021;-61
2021/08/14 12:10:24;;;;;;;11.77;7.03;;;25.10;77.90;;;;;;5031487;28;20013;-61
2021/08/14 12:12:57;;;;;;;11.50;6.45;;;25.20;77.40;;;;;;5031961;28;20883;-61
2021/08/14 12:15:41;;;;;;;11.70;7.60;;;25.40;77.20;;;;;;5032584;28;20064;-61
2021/08/14 12:18:08;;;;;;;11.68;6.82;;;25.40;76.30;;;;;;5032368;28;20084;-61
2021/08/14 12:20:36;;;;;;;13.55;7.03;;;25.60;76.00;;;;;;5032122;28;20095;-61
2021/08/14 12:23:26;;;;;;;16.67;7.82;;;25.80;75.90;;;;;;5032178;28;20112;-61
2021/08/14 12:25:57;;;;;;;11.23;6.25;;;26.10;74.80;;;;;;5031676;28;20025;-61
2021/08/14 12:28:34;;;;;;;11.80;6.32;;;26.20;74.10;;;;;;5032583;28;20034;-61
2021/08/14 12:31:13;;;;;;;15.93;7.82;;;26.30;73.10;;;;;;5031739;28;20100;-61
2021/08/14 12:33:56;;;;;;;12.35;6.45;;;26.40;72.40;;;;;;5032456;28;20055;-62
2021/08/14 12:36:33;;;;;;;10.40;6.25;;;26.40;72.30;;;;;;5032577;28;20017;-61
2021/08/14 12:38:59;;;;;;;9.68;5.60;;;26.60;71.50;;;;;;5032084;28;20029;-61
2021/08/14 12:41:24;;;;;;;12.18;6.75;;;26.60;70.80;;;;;;5032240;28;20046;-61